createdAt,value
2022-10-30T00:02:24.513Z,10.30
2022-10-30T00:04:51.303Z,10.30
2022-10-30T00:07:18.029Z,10.30
2022-10-30T00:09:44.712Z,10.30
2022-10-30T00:12:11.434Z,10.30
2022-10-30T00:14:38.117Z,10.30
2022-10-30T00:17:04.844Z,10.20
2022-10-30T00:19:31.669Z,10.30
2022-10-30T00:24:24.724Z,10.20
2022-10-30T00:26:51.398Z,10.10
2022-10-30T00:29:18.102Z,10.10
2022-10-30T00:31:44.825Z,10.10
2022-10-30T00:34:11.546Z,10.10
2022-10-30T00:36:38.259Z,10.00
2022-10-30T00:39:06.239Z,10.00
2022-10-30T00:41:33.113Z,10.10
2022-10-30T00:43:59.864Z,10.10
2022-10-30T00:46:39.364Z,10.00
2022-10-30T00:49:19.750Z,10.00
2022-10-30T00:51:51.786Z,9.90
2022-10-30T00:54:19.721Z,9.90
2022-10-30T00:56:47.979Z,9.80
2022-10-30T00:59:22.430Z,9.90
2022-10-30T01:01:49.414Z,9.90
2022-10-30T01:04:17.758Z,9.80
2022-10-30T01:06:48.452Z,9.80
2022-10-30T01:09:15.981Z,9.70
2022-10-30T01:11:42.746Z,9.70
2022-10-30T01:14:11.116Z,9.70
2022-10-30T01:16:44.472Z,9.60
2022-10-30T01:19:36.036Z,9.60
2022-10-30T01:22:21.181Z,9.70
2022-10-30T01:24:54.024Z,9.70
2022-10-30T01:27:44.453Z,9.60
2022-10-30T01:30:29.873Z,9.60
2022-10-30T01:33:20.595Z,9.50
2022-10-30T01:35:59.513Z,9.50
2022-10-30T01:38:36.682Z,9.40
2022-10-30T01:41:03.413Z,9.40
2022-10-30T01:43:31.205Z,9.40
2022-10-30T01:46:19.122Z,9.30
2022-10-30T01:49:04.362Z,9.30
2022-10-30T01:51:45.136Z,9.30
2022-10-30T01:54:14.834Z,9.20
2022-10-30T01:57:02.903Z,9.20
2022-10-30T01:59:48.044Z,9.20
2022-10-30T02:02:14.958Z,9.20
2022-10-30T02:04:42.089Z,9.20
2022-10-30T02:07:09.816Z,9.20
2022-10-30T02:09:36.571Z,9.20
2022-10-30T02:12:03.775Z,9.20
2022-10-30T02:14:43.655Z,9.20
2022-10-30T02:17:11.977Z,9.00
2022-10-30T02:19:39.373Z,9.00
2022-10-30T02:22:06.320Z,9.00
2022-10-30T02:24:34.536Z,9.00
2022-10-30T02:27:01.342Z,8.90
2022-10-30T02:29:28.167Z,8.90
2022-10-30T02:31:54.893Z,8.80
2022-10-30T02:34:21.682Z,8.80
2022-10-30T02:36:48.500Z,8.80
2022-10-30T02:39:15.301Z,8.70
2022-10-30T02:41:42.104Z,8.70
2022-10-30T02:44:08.835Z,8.70
2022-10-30T02:46:35.638Z,8.70
2022-10-30T02:49:02.829Z,8.70
2022-10-30T02:51:31.962Z,8.70
2022-10-30T02:54:00.167Z,8.70
2022-10-30T02:56:27.017Z,8.70
2022-10-30T02:58:55.683Z,8.60
2022-10-30T03:01:22.535Z,8.60
2022-10-30T03:03:49.374Z,8.60
2022-10-30T03:06:18.660Z,8.50
2022-10-30T03:08:45.776Z,8.50
2022-10-30T03:11:15.551Z,8.40
2022-10-30T03:13:43.951Z,8.40
2022-10-30T03:16:13.337Z,8.40
2022-10-30T03:18:40.516Z,8.40
2022-10-30T03:21:09.619Z,8.40
2022-10-30T03:23:36.374Z,8.40
2022-10-30T03:26:04.354Z,8.30
2022-10-30T03:28:32.424Z,8.30
2022-10-30T03:31:03.723Z,8.30
2022-10-30T03:33:31.382Z,8.30
2022-10-30T03:35:58.254Z,8.40
2022-10-30T03:38:25.098Z,8.30
2022-10-30T03:40:52.015Z,8.20
2022-10-30T03:43:19.330Z,8.20
2022-10-30T03:45:48.437Z,8.10
2022-10-30T03:48:15.666Z,8.10
2022-10-30T03:50:42.427Z,8.10
2022-10-30T03:53:09.525Z,8.10
2022-10-30T03:55:36.252Z,8.10
2022-10-30T03:58:03.425Z,8.20
2022-10-30T04:00:30.326Z,8.10
2022-10-30T04:02:57.828Z,8.10
2022-10-30T04:05:25.856Z,8.10
2022-10-30T04:08:03.257Z,8.20
2022-10-30T04:10:30.068Z,8.10
2022-10-30T04:13:01.417Z,8.00
2022-10-30T04:15:28.230Z,8.00
2022-10-30T04:17:55.330Z,8.00
2022-10-30T04:20:24.097Z,7.90
2022-10-30T04:22:57.008Z,7.90
2022-10-30T04:25:24.263Z,7.90
2022-10-30T04:27:53.061Z,7.90
2022-10-30T04:30:25.097Z,7.90
2022-10-30T04:32:54.593Z,7.90
2022-10-30T04:35:24.345Z,7.90
2022-10-30T04:38:01.724Z,7.90
2022-10-30T04:40:31.185Z,7.90
2022-10-30T04:42:58.770Z,7.90
2022-10-30T04:45:26.182Z,7.80
2022-10-30T04:47:53.191Z,7.80
2022-10-30T04:50:19.901Z,7.90
2022-10-30T04:52:46.622Z,7.90
2022-10-30T04:55:13.379Z,7.90
2022-10-30T04:57:40.110Z,7.80
2022-10-30T05:00:08.398Z,7.70
2022-10-30T05:02:39.111Z,7.70
2022-10-30T05:05:06.198Z,7.70
2022-10-30T05:07:32.933Z,7.70
2022-10-30T05:09:59.638Z,7.60
2022-10-30T05:12:26.391Z,7.70
2022-10-30T05:14:53.063Z,7.70
2022-10-30T05:17:19.850Z,7.60
2022-10-30T05:19:46.625Z,7.60
2022-10-30T05:22:13.350Z,7.70
2022-10-30T05:24:40.102Z,7.60
2022-10-30T05:27:06.801Z,7.60
2022-10-30T05:29:33.487Z,7.60
2022-10-30T05:32:00.236Z,7.70
2022-10-30T05:34:27.012Z,7.70
2022-10-30T05:36:53.728Z,7.70
2022-10-30T05:39:20.443Z,7.60
2022-10-30T05:41:47.148Z,7.60
2022-10-30T05:44:13.886Z,7.60
2022-10-30T05:46:40.841Z,7.50
2022-10-30T05:49:07.606Z,7.50
2022-10-30T05:51:38.018Z,7.50
2022-10-30T05:54:07.263Z,7.40
2022-10-30T05:56:33.979Z,7.40
2022-10-30T05:59:00.687Z,7.40
2022-10-30T06:01:27.569Z,7.50
2022-10-30T06:03:54.378Z,7.50
2022-10-30T06:06:21.164Z,7.60
2022-10-30T06:08:47.862Z,7.60
2022-10-30T06:11:14.611Z,7.50
2022-10-30T06:13:41.465Z,7.50
2022-10-30T06:16:08.408Z,7.40
2022-10-30T06:18:35.135Z,7.50
2022-10-30T06:21:01.885Z,7.50
2022-10-30T06:23:28.616Z,7.40
2022-10-30T06:25:55.302Z,7.40
2022-10-30T06:28:22.046Z,7.40
2022-10-30T06:30:48.902Z,7.50
2022-10-30T06:33:15.662Z,7.40
2022-10-30T06:35:42.365Z,7.40
2022-10-30T06:38:11.922Z,7.40
2022-10-30T06:40:38.634Z,7.40
2022-10-30T06:43:05.421Z,7.40
2022-10-30T06:45:32.188Z,7.40
2022-10-30T06:48:00.490Z,7.50
2022-10-30T06:50:27.684Z,7.50
2022-10-30T06:52:55.652Z,7.50
2022-10-30T06:55:22.471Z,7.50
2022-10-30T06:57:57.635Z,7.50
2022-10-30T07:00:24.888Z,7.60
2022-10-30T07:03:02.713Z,7.60
2022-10-30T07:05:29.905Z,7.60
2022-10-30T07:07:57.735Z,7.60
2022-10-30T07:10:24.668Z,7.60
2022-10-30T07:12:53.290Z,7.70
2022-10-30T07:15:20.138Z,7.80
2022-10-30T07:18:01.402Z,7.80
2022-10-30T07:20:30.335Z,7.80
2022-10-30T07:22:57.106Z,7.90
2022-10-30T07:25:24.079Z,7.90
2022-10-30T07:27:52.339Z,8.00
2022-10-30T07:30:21.541Z,8.10
2022-10-30T07:33:04.039Z,8.20
2022-10-30T07:35:31.987Z,8.30
2022-10-30T07:38:07.181Z,8.40
2022-10-30T07:40:34.491Z,8.40
2022-10-30T07:43:02.963Z,8.40
2022-10-30T07:45:30.482Z,8.50
2022-10-30T07:47:57.792Z,8.60
2022-10-30T07:50:24.857Z,8.60
2022-10-30T07:52:51.578Z,8.70
2022-10-30T07:55:18.305Z,8.80
2022-10-30T07:57:45.101Z,8.80
2022-10-30T08:00:13.985Z,9.00
2022-10-30T08:02:41.566Z,9.10
2022-10-30T08:05:08.944Z,9.20
2022-10-30T08:07:38.935Z,9.40
2022-10-30T08:10:06.482Z,9.40
2022-10-30T08:12:34.272Z,9.40
2022-10-30T08:15:01.571Z,9.60
2022-10-30T08:17:28.678Z,9.70
2022-10-30T08:19:57.094Z,9.90
2022-10-30T08:22:24.149Z,10.30
2022-10-30T08:24:50.886Z,10.60
2022-10-30T08:27:17.645Z,11.00
2022-10-30T08:29:44.411Z,11.30
2022-10-30T08:32:11.134Z,11.60
2022-10-30T08:34:37.866Z,12.00
2022-10-30T08:37:04.759Z,12.30
2022-10-30T08:39:31.429Z,12.50
2022-10-30T08:41:59.747Z,12.90
2022-10-30T08:44:26.730Z,13.20
2022-10-30T08:46:53.422Z,13.50
2022-10-30T08:49:20.274Z,13.90
2022-10-30T08:51:47.032Z,13.90
2022-10-30T08:54:13.759Z,14.10
2022-10-30T08:56:40.472Z,14.20
2022-10-30T08:59:07.204Z,14.40
2022-10-30T09:01:34.069Z,14.60
2022-10-30T09:04:00.869Z,14.90
2022-10-30T09:06:29.995Z,15.40
2022-10-30T09:08:56.679Z,15.60
2022-10-30T09:11:23.404Z,15.80
2022-10-30T09:13:50.089Z,16.40
2022-10-30T09:16:16.791Z,16.80
2022-10-30T09:18:43.507Z,16.90
2022-10-30T09:21:10.647Z,16.90
2022-10-30T09:23:37.415Z,17.10
2022-10-30T09:26:04.140Z,17.20
2022-10-30T09:28:30.845Z,17.50
2022-10-30T09:30:57.525Z,17.70
2022-10-30T09:33:24.287Z,18.30
2022-10-30T09:35:51.025Z,18.60
2022-10-30T09:38:17.781Z,18.90
2022-10-30T09:41:10.463Z,18.90
2022-10-30T09:43:40.235Z,19.10
2022-10-30T09:46:32.096Z,19.70
2022-10-30T09:49:27.175Z,19.80
2022-10-30T09:52:41.198Z,20.10
2022-10-30T09:55:13.499Z,20.10
2022-10-30T09:58:07.224Z,20.20
2022-10-30T10:00:39.201Z,20.20
2022-10-30T10:03:20.540Z,20.50
2022-10-30T10:05:59.490Z,21.00
2022-10-30T10:08:35.082Z,21.20
2022-10-30T10:11:16.700Z,21.40
2022-10-30T10:13:53.742Z,21.60
2022-10-30T10:16:23.669Z,21.50
2022-10-30T10:19:16.389Z,21.50
2022-10-30T10:22:00.571Z,21.90
2022-10-30T10:24:31.083Z,22.10
2022-10-30T10:27:45.285Z,22.50
2022-10-30T10:30:23.283Z,22.90
2022-10-30T10:36:12.986Z,23.70
2022-10-30T10:39:03.607Z,23.70
2022-10-30T10:41:33.175Z,24.00
2022-10-30T10:44:21.149Z,24.10
2022-10-30T10:47:07.397Z,24.60
2022-10-30T10:49:42.027Z,24.90
2022-10-30T10:52:17.572Z,24.80
2022-10-30T10:54:49.898Z,24.80
2022-10-30T10:57:46.506Z,24.90
2022-10-30T11:00:23.189Z,25.00
2022-10-30T11:03:04.143Z,24.80
2022-10-30T11:05:47.288Z,25.00
2022-10-30T11:08:29.014Z,25.00
2022-10-30T11:11:06.798Z,25.20
2022-10-30T11:13:39.393Z,25.30
2022-10-30T11:16:27.022Z,25.60
2022-10-30T11:19:00.937Z,25.60
2022-10-30T11:21:32.494Z,25.60
2022-10-30T11:23:59.230Z,25.50
2022-10-30T11:26:28.442Z,25.80
2022-10-30T11:29:18.569Z,26.10
2022-10-30T11:31:45.718Z,26.40
2022-10-30T11:34:17.928Z,26.40
2022-10-30T11:36:49.693Z,26.60
2022-10-30T11:39:28.261Z,26.70
2022-10-30T11:42:13.741Z,27.00
2022-10-30T11:44:44.986Z,27.10
2022-10-30T11:47:15.576Z,27.40
2022-10-30T11:49:58.985Z,27.60
2022-10-30T11:52:27.224Z,27.50
2022-10-30T11:55:16.161Z,27.50
2022-10-30T11:57:46.221Z,27.70
2022-10-30T12:00:22.958Z,27.40
2022-10-30T12:02:56.333Z,27.10
2022-10-30T12:05:26.150Z,27.30
2022-10-30T12:07:54.066Z,27.20
2022-10-30T12:10:29.083Z,27.40
2022-10-30T12:12:56.888Z,27.40
2022-10-30T12:15:28.010Z,27.50
2022-10-30T12:17:59.914Z,27.20
2022-10-30T12:20:27.407Z,27.50
2022-10-30T12:22:55.405Z,27.60
2022-10-30T12:25:30.253Z,27.50
2022-10-30T12:28:04.666Z,27.80
2022-10-30T12:30:52.365Z,27.80
2022-10-30T12:33:40.771Z,27.90
2022-10-30T12:36:15.696Z,27.90
2022-10-30T12:38:44.902Z,28.30
2022-10-30T12:41:17.118Z,28.40
2022-10-30T12:43:50.067Z,28.40
2022-10-30T12:46:22.565Z,28.10
2022-10-30T12:49:03.068Z,27.90
2022-10-30T12:51:37.959Z,28.20
2022-10-30T12:54:24.660Z,28.80
2022-10-30T12:57:01.429Z,28.60
2022-10-30T12:59:35.692Z,28.50
2022-10-30T13:02:13.304Z,28.40
2022-10-30T13:04:44.787Z,28.10
2022-10-30T13:07:26.474Z,28.30
2022-10-30T13:10:28.412Z,28.20
2022-10-30T13:13:02.069Z,28.00
2022-10-30T13:15:38.189Z,27.80
2022-10-30T13:18:25.218Z,28.00
2022-10-30T13:21:05.941Z,28.20
2022-10-30T13:23:48.588Z,28.20
2022-10-30T13:26:15.251Z,28.10
2022-10-30T13:28:52.385Z,28.00
2022-10-30T13:31:47.222Z,27.70
2022-10-30T13:35:09.457Z,27.50
2022-10-30T13:37:42.101Z,28.10
2022-10-30T13:40:15.873Z,27.90
2022-10-30T13:43:02.254Z,27.50
2022-10-30T13:45:59.811Z,27.30
2022-10-30T13:48:50.369Z,27.50
2022-10-30T13:51:27.815Z,27.70
2022-10-30T13:54:22.187Z,27.70
2022-10-30T13:56:50.431Z,27.60
2022-10-30T13:59:44.303Z,27.40
2022-10-30T14:02:30.169Z,27.10
2022-10-30T14:05:12.872Z,27.10
2022-10-30T14:07:49.786Z,27.00
2022-10-30T14:10:37.354Z,26.80
2022-10-30T14:13:15.235Z,26.30
2022-10-30T14:15:44.255Z,25.90
2022-10-30T14:18:13.789Z,25.60
2022-10-30T14:21:26.748Z,25.20
2022-10-30T14:24:12.504Z,25.00
2022-10-30T14:26:53.128Z,24.90
2022-10-30T14:29:44.318Z,24.70
2022-10-30T14:32:13.976Z,24.40
2022-10-30T14:34:58.277Z,24.30
2022-10-30T14:37:28.093Z,24.10
2022-10-30T14:40:15.872Z,23.90
2022-10-30T14:42:52.439Z,23.60
2022-10-30T14:45:19.143Z,23.50
2022-10-30T14:47:56.437Z,23.40
2022-10-30T14:50:50.066Z,23.30
2022-10-30T14:53:29.775Z,23.20
2022-10-30T14:56:01.916Z,23.00
2022-10-30T14:58:37.191Z,22.80
2022-10-30T15:01:03.960Z,22.70
2022-10-30T15:03:55.656Z,22.60
2022-10-30T15:06:26.260Z,22.40
2022-10-30T15:09:20.259Z,22.30
2022-10-30T15:12:21.451Z,22.10
2022-10-30T15:14:55.249Z,21.90
2022-10-30T15:17:37.601Z,21.70
2022-10-30T15:20:26.732Z,21.50
2022-10-30T15:23:01.279Z,21.40
2022-10-30T15:25:36.118Z,21.20
2022-10-30T15:28:03.788Z,21.00
2022-10-30T15:30:30.741Z,20.80
2022-10-30T15:32:58.019Z,20.60
2022-10-30T15:35:27.082Z,20.40
2022-10-30T15:38:01.779Z,20.30
2022-10-30T15:40:30.038Z,20.10
2022-10-30T15:42:59.398Z,19.90
2022-10-30T15:45:30.241Z,19.70
2022-10-30T15:48:25.099Z,19.50
2022-10-30T15:51:02.740Z,19.40
2022-10-30T15:53:41.255Z,19.10
2022-10-30T15:56:19.965Z,18.90
2022-10-30T15:58:59.603Z,18.80
2022-10-30T16:01:30.499Z,18.60
2022-10-30T16:03:57.663Z,18.40
2022-10-30T16:06:27.451Z,18.30
2022-10-30T16:08:54.218Z,18.20
2022-10-30T16:11:22.721Z,18.00
2022-10-30T16:13:50.044Z,17.90
2022-10-30T16:16:43.848Z,17.80
2022-10-30T16:19:29.097Z,17.60
2022-10-30T16:21:57.881Z,17.50
2022-10-30T16:24:33.040Z,17.30
2022-10-30T16:27:06.314Z,17.10
2022-10-30T16:29:34.968Z,17.00
2022-10-30T16:32:02.162Z,16.90
2022-10-30T16:34:37.230Z,16.90
2022-10-30T16:37:05.925Z,16.70
2022-10-30T16:39:34.080Z,16.60
2022-10-30T16:42:01.531Z,16.60
2022-10-30T16:44:32.367Z,16.50
2022-10-30T16:47:19.294Z,16.40
2022-10-30T16:49:49.647Z,16.30
2022-10-30T16:52:17.409Z,16.20
2022-10-30T16:54:59.590Z,16.10
2022-10-30T16:57:29.866Z,16.00
2022-10-30T16:59:57.497Z,16.00
2022-10-30T17:02:30.629Z,15.90
2022-10-30T17:05:24.099Z,15.80
2022-10-30T17:08:17.722Z,15.70
2022-10-30T17:10:48.431Z,15.70
2022-10-30T17:13:30.212Z,15.50
2022-10-30T17:15:57.304Z,15.50
2022-10-30T17:18:31.417Z,15.40
2022-10-30T17:21:15.878Z,15.30
2022-10-30T17:23:47.741Z,15.30
2022-10-30T17:26:15.285Z,15.20
2022-10-30T17:28:42.929Z,15.10
2022-10-30T17:31:29.803Z,15.00
2022-10-30T17:34:13.398Z,15.00
2022-10-30T17:36:40.728Z,14.90
2022-10-30T17:39:07.674Z,14.80
2022-10-30T17:41:35.436Z,14.80
2022-10-30T17:44:02.514Z,14.70
2022-10-30T17:46:29.376Z,14.60
2022-10-30T17:48:58.953Z,14.40
2022-10-30T17:51:26.499Z,14.40
2022-10-30T17:53:53.523Z,14.30
2022-10-30T17:56:30.327Z,14.20
2022-10-30T17:58:57.206Z,14.20
2022-10-30T18:01:26.186Z,14.10
2022-10-30T18:03:57.825Z,14.00
2022-10-30T18:06:29.256Z,13.90
2022-10-30T18:08:56.023Z,13.80
2022-10-30T18:11:24.712Z,13.70
2022-10-30T18:13:52.602Z,13.60
2022-10-30T18:16:19.689Z,13.70
2022-10-30T18:18:50.165Z,13.60
2022-10-30T18:21:18.840Z,13.50
2022-10-30T18:23:52.272Z,13.40
2022-10-30T18:26:22.311Z,13.40
2022-10-30T18:28:49.520Z,13.30
2022-10-30T18:31:19.035Z,13.30
2022-10-30T18:33:46.497Z,13.20
2022-10-30T18:36:15.753Z,13.10
2022-10-30T18:38:42.636Z,13.10
2022-10-30T18:41:14.397Z,13.00
2022-10-30T18:43:45.601Z,12.90
2022-10-30T18:46:14.255Z,12.90
2022-10-30T18:48:41.406Z,12.90
2022-10-30T18:51:18.991Z,12.80
2022-10-30T18:53:51.766Z,12.80
2022-10-30T18:56:23.805Z,12.70
2022-10-30T18:58:54.962Z,12.60
2022-10-30T19:01:25.958Z,12.60
2022-10-30T19:03:52.936Z,12.60
2022-10-30T19:06:22.307Z,12.50
2022-10-30T19:08:49.419Z,12.40
2022-10-30T19:11:22.186Z,12.40
2022-10-30T19:13:51.838Z,12.30
2022-10-30T19:16:19.805Z,12.20
2022-10-30T19:18:47.406Z,12.20
2022-10-30T19:21:25.784Z,12.20
2022-10-30T19:23:52.799Z,12.20
2022-10-30T19:26:19.528Z,12.10
2022-10-30T19:28:46.469Z,12.00
2022-10-30T19:31:15.048Z,12.00
2022-10-30T19:33:42.254Z,12.00
2022-10-30T19:36:36.293Z,11.90
2022-10-30T19:39:14.282Z,11.90
2022-10-30T19:41:41.422Z,11.80
2022-10-30T19:44:08.606Z,11.80
2022-10-30T19:46:36.194Z,11.70
2022-10-30T19:49:23.499Z,11.60
2022-10-30T19:51:50.203Z,11.60
2022-10-30T19:54:16.965Z,11.60
2022-10-30T19:56:44.194Z,11.50
2022-10-30T19:59:13.793Z,11.50
2022-10-30T20:01:41.725Z,11.40
2022-10-30T20:04:08.906Z,11.30
2022-10-30T20:06:35.734Z,11.30
2022-10-30T20:09:02.621Z,11.30
2022-10-30T20:11:30.086Z,11.20
2022-10-30T20:13:56.809Z,11.20
2022-10-30T20:16:23.583Z,11.10
2022-10-30T20:18:50.871Z,11.10
2022-10-30T20:21:19.245Z,11.10
2022-10-30T20:23:46.093Z,11.10
2022-10-30T20:26:24.057Z,11.00
2022-10-30T20:28:51.001Z,11.00
2022-10-30T20:31:17.738Z,11.00
2022-10-30T20:33:44.516Z,10.90
2022-10-30T20:36:13.275Z,10.90
2022-10-30T20:38:40.276Z,10.90
2022-10-30T20:41:07.488Z,10.90
2022-10-30T20:43:36.736Z,10.90
2022-10-30T20:46:05.747Z,10.80
2022-10-30T20:48:32.939Z,10.70
2022-10-30T20:51:01.208Z,10.70
2022-10-30T20:53:28.732Z,10.60
2022-10-30T20:55:56.115Z,10.60
2022-10-30T20:58:22.825Z,10.50
2022-10-30T21:00:49.864Z,10.50
2022-10-30T21:03:16.932Z,10.40
2022-10-30T21:05:45.697Z,10.40
2022-10-30T21:08:14.195Z,10.40
2022-10-30T21:10:41.701Z,10.30
2022-10-30T21:13:09.767Z,10.20
2022-10-30T21:15:42.615Z,10.20
2022-10-30T21:18:11.011Z,10.20
2022-10-30T21:20:38.199Z,10.20
2022-10-30T21:23:05.763Z,10.10
2022-10-30T21:25:32.914Z,10.00
2022-10-30T21:28:00.225Z,10.00
2022-10-30T21:30:27.549Z,10.00
2022-10-30T21:32:54.367Z,9.90
2022-10-30T21:35:21.189Z,9.90
2022-10-30T21:37:48.156Z,9.90
2022-10-30T21:40:15.188Z,9.90
2022-10-30T21:42:41.965Z,9.80
2022-10-30T21:45:09.361Z,9.80
2022-10-30T21:47:36.081Z,9.80
2022-10-30T21:50:06.134Z,9.80
2022-10-30T21:52:34.726Z,9.80
2022-10-30T21:55:01.478Z,9.70
2022-10-30T21:57:29.270Z,9.70
2022-10-30T21:59:58.801Z,9.60
2022-10-30T22:02:28.447Z,9.60
2022-10-30T22:04:55.255Z,9.50
2022-10-30T22:07:22.075Z,9.50
2022-10-30T22:09:48.814Z,9.40
2022-10-30T22:12:15.482Z,9.40
2022-10-30T22:14:42.194Z,9.30
2022-10-30T22:17:08.886Z,9.30
2022-10-30T22:19:35.705Z,9.30
2022-10-30T22:22:02.478Z,9.30
2022-10-30T22:24:29.310Z,9.30
2022-10-30T22:26:56.140Z,9.30
2022-10-30T22:29:22.903Z,9.20
2022-10-30T22:31:49.956Z,9.20
2022-10-30T22:34:16.704Z,9.20
2022-10-30T22:36:43.435Z,9.10
2022-10-30T22:39:13.763Z,9.10
2022-10-30T22:41:41.081Z,9.10
2022-10-30T22:44:11.910Z,9.00
2022-10-30T22:46:38.994Z,9.00
2022-10-30T22:49:06.600Z,9.10
2022-10-30T22:51:36.216Z,9.10
2022-10-30T22:54:05.823Z,9.10
2022-10-30T22:56:34.733Z,9.10
2022-10-30T22:59:06.483Z,9.00
2022-10-30T23:01:35.490Z,8.90
2022-10-30T23:04:03.822Z,8.90
2022-10-30T23:06:31.657Z,8.80
2022-10-30T23:09:00.731Z,8.80
2022-10-30T23:11:28.216Z,8.80
2022-10-30T23:13:55.591Z,8.80
2022-10-30T23:16:24.517Z,8.70
2022-10-30T23:18:53.524Z,8.70
2022-10-30T23:21:22.801Z,8.60
2022-10-30T23:23:50.060Z,8.60
2022-10-30T23:26:22.654Z,8.50
2022-10-30T23:28:51.484Z,8.50
2022-10-30T23:31:22.261Z,8.40
2022-10-30T23:33:50.698Z,8.50
2022-10-30T23:36:17.867Z,8.40
2022-10-30T23:38:44.853Z,8.50
2022-10-30T23:41:11.579Z,8.50
2022-10-30T23:43:38.293Z,8.40
2022-10-30T23:46:05.621Z,8.40
2022-10-30T23:48:32.291Z,8.30
2022-10-30T23:50:58.957Z,8.30
2022-10-30T23:53:25.698Z,8.30
2022-10-30T23:55:53.375Z,8.30
2022-10-30T23:58:20.801Z,8.30
